createdAt,value
2019-02-05T00:01:43.635Z,21.80
2019-02-05T00:04:14.128Z,22.87
2019-02-05T00:06:44.586Z,24.10
2019-02-05T00:09:15.212Z,21.60
2019-02-05T00:11:45.677Z,23.40
2019-02-05T00:14:16.239Z,27.60
2019-02-05T00:16:46.733Z,26.10
2019-02-05T00:19:17.257Z,25.27
2019-02-05T00:21:47.748Z,20.00
2019-02-05T00:24:18.241Z,22.93
2019-02-05T00:26:48.734Z,21.93
2019-02-05T00:29:19.812Z,23.20
2019-02-05T00:31:50.295Z,24.80
2019-02-05T00:34:20.769Z,19.37
2019-02-05T00:36:51.259Z,33.40
2019-02-05T00:39:21.744Z,24.40
2019-02-05T00:41:52.206Z,22.67
2019-02-05T00:44:22.711Z,24.13
2019-02-05T00:46:53.168Z,22.60
2019-02-05T00:49:23.655Z,24.53
2019-02-05T00:51:54.122Z,18.40
2019-02-05T00:54:26.379Z,24.50
2019-02-05T00:56:56.843Z,22.77
2019-02-05T00:59:27.326Z,24.43
2019-02-05T01:01:57.847Z,24.93
2019-02-05T01:04:28.430Z,18.67
2019-02-05T01:06:58.959Z,25.10
2019-02-05T01:09:29.916Z,20.10
2019-02-05T01:12:00.482Z,24.90
2019-02-05T01:14:30.939Z,24.83
2019-02-05T01:17:01.444Z,27.97
2019-02-05T01:19:31.929Z,25.67
2019-02-05T01:22:02.451Z,20.50
2019-02-05T01:24:32.939Z,23.40
2019-02-05T01:27:03.422Z,26.97
2019-02-05T01:29:33.888Z,25.10
2019-02-05T01:32:05.905Z,25.37
2019-02-05T01:34:36.370Z,22.00
2019-02-05T01:37:06.875Z,24.83
2019-02-05T01:39:37.332Z,27.57
2019-02-05T01:42:07.813Z,21.33
2019-02-05T01:44:38.278Z,22.37
2019-02-05T01:47:08.762Z,24.37
2019-02-05T01:49:39.613Z,26.43
2019-02-05T01:52:11.025Z,24.53
2019-02-05T01:54:41.497Z,24.70
2019-02-05T01:57:12.002Z,27.47
2019-02-05T01:59:42.466Z,25.13
2019-02-05T02:02:13.399Z,25.43
2019-02-05T02:04:43.878Z,24.00
2019-02-05T02:07:14.530Z,25.07
2019-02-05T02:09:45.003Z,26.13
2019-02-05T02:12:15.458Z,27.60
2019-02-05T02:14:46.017Z,23.23
2019-02-05T02:17:16.649Z,24.20
2019-02-05T02:19:47.139Z,30.77
2019-02-05T02:22:17.667Z,26.20
2019-02-05T02:24:48.323Z,32.87
2019-02-05T02:27:18.804Z,29.37
2019-02-05T02:29:49.875Z,29.17
2019-02-05T02:32:20.307Z,25.93
2019-02-05T02:34:50.797Z,32.73
2019-02-05T02:37:21.283Z,31.50
2019-02-05T02:39:51.743Z,34.93
2019-02-05T02:42:22.224Z,34.33
2019-02-05T02:44:52.690Z,31.87
2019-02-05T02:47:23.192Z,28.20
2019-02-05T02:49:53.647Z,33.50
2019-02-05T02:52:24.130Z,29.23
2019-02-05T02:54:54.668Z,32.40
2019-02-05T02:57:25.533Z,31.67
2019-02-05T02:59:56.068Z,29.67
2019-02-05T03:02:26.560Z,32.17
2019-02-05T03:04:57.097Z,33.40
2019-02-05T03:07:27.582Z,32.30
2019-02-05T03:09:58.050Z,29.27
2019-02-05T03:12:28.905Z,28.80
2019-02-05T03:14:59.367Z,31.13
2019-02-05T03:17:29.934Z,31.47
2019-02-05T03:20:01.545Z,31.30
2019-02-05T03:22:32.858Z,31.73
2019-02-05T03:25:04.481Z,31.67
2019-02-05T03:27:35.195Z,30.50
2019-02-05T03:30:13.401Z,33.80
2019-02-05T03:32:44.044Z,32.27
2019-02-05T03:35:15.434Z,28.80
2019-02-05T03:37:45.992Z,35.90
2019-02-05T03:40:33.769Z,32.03
2019-02-05T03:43:04.295Z,30.80
2019-02-05T03:45:34.927Z,28.90
2019-02-05T03:48:06.522Z,30.93
2019-02-05T03:50:49.398Z,29.30
2019-02-05T03:53:32.965Z,31.93
2019-02-05T03:56:29.225Z,33.90
2019-02-05T03:59:19.304Z,27.27
2019-02-05T04:02:15.463Z,30.93
2019-02-05T04:05:26.398Z,27.37
2019-02-05T04:08:24.181Z,34.57
2019-02-05T04:11:08.041Z,29.27
2019-02-05T04:14:06.551Z,27.70
2019-02-05T04:17:04.248Z,31.97
2019-02-05T04:20:22.084Z,26.10
2019-02-05T04:23:23.710Z,32.43
2019-02-05T04:26:24.282Z,29.90
2019-02-05T04:29:18.859Z,29.33
2019-02-05T04:32:25.809Z,29.67
2019-02-05T04:35:36.002Z,33.60
2019-02-05T04:38:22.969Z,34.90
2019-02-05T04:41:27.914Z,32.93
2019-02-05T04:44:47.192Z,34.40
2019-02-05T04:47:34.252Z,36.30
2019-02-05T04:50:15.335Z,31.47
2019-02-05T04:53:12.941Z,36.90
2019-02-05T04:56:00.091Z,31.10
2019-02-05T04:58:43.947Z,34.33
2019-02-05T05:01:46.273Z,32.33
2019-02-05T05:04:38.648Z,35.90
2019-02-05T05:07:28.531Z,37.60
2019-02-05T05:09:59.460Z,36.93
2019-02-05T05:12:30.059Z,38.07
2019-02-05T05:15:00.735Z,32.33
2019-02-05T05:17:31.255Z,35.10
2019-02-05T05:20:01.731Z,34.77
2019-02-05T05:22:32.293Z,32.27
2019-02-05T05:25:02.923Z,36.17
2019-02-05T05:27:33.540Z,33.73
2019-02-05T05:30:08.645Z,38.97
2019-02-05T05:32:39.142Z,35.27
2019-02-05T05:35:10.840Z,43.47
2019-02-05T05:37:41.297Z,41.17
2019-02-05T05:40:12.398Z,54.23
2019-02-05T05:42:42.903Z,45.60
2019-02-05T05:45:14.894Z,42.23
2019-02-05T05:47:45.460Z,38.80
2019-02-05T05:50:16.572Z,33.83
2019-02-05T05:52:47.074Z,40.90
2019-02-05T05:55:17.536Z,37.87
2019-02-05T05:57:48.018Z,38.43
2019-02-05T06:00:20.455Z,37.70
2019-02-05T06:02:51.608Z,39.67
2019-02-05T06:05:22.509Z,37.20
2019-02-05T06:07:53.471Z,73.40
2019-02-05T06:10:23.983Z,148.13
2019-02-05T06:12:54.427Z,44.73
2019-02-05T06:15:24.914Z,49.93
2019-02-05T06:17:55.412Z,113.27
2019-02-05T06:20:25.951Z,50.73
2019-02-05T06:22:56.502Z,64.13
2019-02-05T06:25:27.036Z,48.80
2019-02-05T06:27:57.523Z,45.23
2019-02-05T06:30:27.985Z,41.03
2019-02-05T06:32:58.531Z,33.90
2019-02-05T06:35:29.130Z,35.00
2019-02-05T06:37:59.639Z,34.10
2019-02-05T06:40:31.268Z,40.03
2019-02-05T06:43:01.845Z,36.23
2019-02-05T06:45:32.480Z,42.03
2019-02-05T06:48:03.018Z,35.13
2019-02-05T06:50:35.448Z,39.00
2019-02-05T06:53:05.973Z,38.47
2019-02-05T06:55:36.490Z,38.80
2019-02-05T06:58:07.162Z,44.20
2019-02-05T07:00:37.645Z,48.27
2019-02-05T07:03:08.492Z,44.83
2019-02-05T07:05:39.355Z,58.17
2019-02-05T07:08:09.895Z,88.63
2019-02-05T07:10:40.365Z,98.07
2019-02-05T07:13:10.905Z,43.10
2019-02-05T07:15:41.395Z,43.70
2019-02-05T07:18:12.970Z,38.27
2019-02-05T07:20:44.585Z,39.30
2019-02-05T07:23:15.071Z,139.30
2019-02-05T07:25:45.562Z,74.60
2019-02-05T07:28:16.018Z,50.00
2019-02-05T07:30:46.524Z,42.73
2019-02-05T07:33:17.431Z,40.00
2019-02-05T07:35:47.928Z,40.47
2019-02-05T07:38:18.397Z,44.73
2019-02-05T07:40:48.940Z,46.90
2019-02-05T07:43:19.503Z,43.90
2019-02-05T07:45:51.362Z,49.00
2019-02-05T07:48:21.822Z,42.80
2019-02-05T07:50:53.961Z,40.53
2019-02-05T07:53:24.446Z,45.10
2019-02-05T07:55:54.939Z,83.33
2019-02-05T07:58:25.424Z,70.90
2019-02-05T08:00:56.025Z,48.83
2019-02-05T08:03:26.503Z,48.27
2019-02-05T08:05:57.257Z,45.53
2019-02-05T08:08:27.790Z,45.03
2019-02-05T08:10:58.288Z,39.97
2019-02-05T08:13:28.821Z,43.93
2019-02-05T08:16:00.248Z,45.00
2019-02-05T08:18:30.810Z,38.23
2019-02-05T08:21:01.304Z,43.47
2019-02-05T08:23:31.770Z,40.73
2019-02-05T08:26:02.253Z,32.47
2019-02-05T08:28:40.592Z,34.47
2019-02-05T08:31:04.960Z,31.30
2019-02-05T08:33:35.418Z,36.20
2019-02-05T08:36:06.423Z,33.87
2019-02-05T08:38:36.872Z,36.87
2019-02-05T08:41:07.781Z,36.40
2019-02-05T08:43:38.280Z,34.93
2019-02-05T08:46:08.736Z,33.27
2019-02-05T08:48:39.224Z,39.90
2019-02-05T08:51:10.056Z,36.63
2019-02-05T08:53:40.564Z,41.37
2019-02-05T08:56:11.182Z,35.07
2019-02-05T08:58:41.674Z,34.63
2019-02-05T09:01:14.480Z,37.17
2019-02-05T09:03:44.563Z,36.77
2019-02-05T09:06:17.160Z,33.50
2019-02-05T09:08:47.638Z,38.40
2019-02-05T09:11:18.093Z,34.57
2019-02-05T09:13:48.580Z,34.47
2019-02-05T09:16:19.087Z,38.10
2019-02-05T09:18:49.550Z,36.80
2019-02-05T09:21:20.313Z,40.23
2019-02-05T09:23:50.959Z,91.90
2019-02-05T09:26:21.393Z,41.40
2019-02-05T09:28:52.565Z,33.73
2019-02-05T09:31:24.102Z,32.23
2019-02-05T09:33:54.680Z,31.83
2019-02-05T09:36:25.217Z,34.70
2019-02-05T09:38:55.729Z,28.87
2019-02-05T09:41:26.220Z,29.90
2019-02-05T09:43:56.761Z,31.50
2019-02-05T09:46:28.270Z,30.83
2019-02-05T09:48:58.754Z,31.00
2019-02-05T09:51:29.232Z,30.80
2019-02-05T09:53:59.731Z,30.87
2019-02-05T09:56:30.232Z,29.93
2019-02-05T09:59:00.698Z,28.60
2019-02-05T10:01:36.227Z,52.23
2019-02-05T10:04:07.018Z,55.50
2019-02-05T10:06:37.567Z,28.57
2019-02-05T10:09:09.192Z,24.77
2019-02-05T10:11:39.725Z,26.87
2019-02-05T10:14:10.217Z,24.70
2019-02-05T10:16:40.717Z,18.53
2019-02-05T10:19:11.693Z,25.23
2019-02-05T10:21:42.221Z,34.07
2019-02-05T10:24:12.854Z,19.10
2019-02-05T10:26:43.379Z,19.60
2019-02-05T10:29:13.860Z,16.73
2019-02-05T10:31:44.317Z,13.90
2019-02-05T10:34:15.189Z,19.70
2019-02-05T10:36:45.835Z,17.73
2019-02-05T10:39:16.513Z,16.73
2019-02-05T10:41:47.249Z,19.80
2019-02-05T10:44:17.710Z,22.90
2019-02-05T10:46:48.277Z,17.03
2019-02-05T10:49:18.925Z,16.87
2019-02-05T10:51:49.403Z,21.20
2019-02-05T10:54:19.877Z,19.33
2019-02-05T10:56:50.370Z,18.10
2019-02-05T10:59:20.834Z,16.63
2019-02-05T11:01:52.080Z,15.17
2019-02-05T11:04:22.542Z,18.47
2019-02-05T11:06:53.102Z,14.10
2019-02-05T11:09:23.631Z,16.10
2019-02-05T11:11:54.136Z,16.10
2019-02-05T11:14:24.723Z,14.93
2019-02-05T11:16:55.190Z,15.97
2019-02-05T11:19:25.698Z,14.00
2019-02-05T11:21:56.155Z,16.20
2019-02-05T11:24:26.637Z,20.83
2019-02-05T11:26:57.130Z,17.37
2019-02-05T11:29:27.608Z,17.47
2019-02-05T11:31:58.159Z,14.77
2019-02-05T11:34:30.270Z,14.63
2019-02-05T11:37:00.761Z,21.10
2019-02-05T11:39:31.230Z,17.57
2019-02-05T11:42:01.722Z,23.03
2019-02-05T11:44:33.465Z,17.40
2019-02-05T11:47:04.886Z,14.23
2019-02-05T11:49:35.360Z,15.70
2019-02-05T11:52:09.746Z,16.50
2019-02-05T11:54:39.775Z,16.80
2019-02-05T11:57:10.342Z,15.90
2019-02-05T11:59:40.817Z,15.87
2019-02-05T12:02:11.741Z,15.60
2019-02-05T12:04:42.235Z,16.43
2019-02-05T12:07:12.758Z,16.50
2019-02-05T12:09:43.363Z,15.60
2019-02-05T12:12:14.771Z,15.07
2019-02-05T12:14:45.252Z,15.77
2019-02-05T12:17:16.287Z,15.60
2019-02-05T12:19:46.834Z,17.60
2019-02-05T12:22:17.835Z,14.13
2019-02-05T12:24:48.322Z,16.80
2019-02-05T12:27:20.313Z,23.50
2019-02-05T12:29:50.887Z,14.83
2019-02-05T12:32:23.158Z,17.57
2019-02-05T12:34:53.627Z,17.10
2019-02-05T12:37:24.210Z,15.63
2019-02-05T12:39:54.682Z,16.63
2019-02-05T12:42:25.251Z,16.10
2019-02-05T12:44:57.379Z,17.00
2019-02-05T12:47:27.927Z,16.23
2019-02-05T12:49:58.428Z,19.00
2019-02-05T12:52:28.896Z,16.40
2019-02-05T12:55:12.803Z,17.13
2019-02-05T12:57:31.642Z,16.07
2019-02-05T13:00:02.501Z,17.70
2019-02-05T13:02:33.052Z,15.63
2019-02-05T13:05:07.760Z,15.20
2019-02-05T13:07:38.241Z,16.27
2019-02-05T13:10:22.576Z,15.70
2019-02-05T13:12:53.207Z,17.47
2019-02-05T13:15:23.814Z,16.90
2019-02-05T13:17:54.323Z,14.53
2019-02-05T13:20:32.007Z,14.87
2019-02-05T13:23:04.584Z,15.30
2019-02-05T13:25:36.507Z,14.80
2019-02-05T13:28:09.786Z,13.77
2019-02-05T13:30:40.511Z,14.50
2019-02-05T13:33:13.796Z,18.87
2019-02-05T13:35:44.547Z,13.43
2019-02-05T13:38:15.116Z,17.40
2019-02-05T13:40:45.648Z,12.60
2019-02-05T13:43:16.306Z,14.10
2019-02-05T13:45:47.724Z,13.80
2019-02-05T13:48:18.231Z,12.30
2019-02-05T13:50:48.771Z,15.40
2019-02-05T13:53:19.288Z,17.53
2019-02-05T13:55:49.818Z,16.87
2019-02-05T13:58:21.289Z,14.13
2019-02-05T14:00:53.720Z,18.77
2019-02-05T14:03:24.351Z,16.50
2019-02-05T14:05:54.830Z,19.83
2019-02-05T14:08:25.600Z,17.70
2019-02-05T14:10:56.239Z,19.17
2019-02-05T14:13:26.752Z,18.30
2019-02-05T14:15:57.180Z,14.33
2019-02-05T14:18:27.741Z,16.27
2019-02-05T14:20:58.230Z,16.07
2019-02-05T14:23:30.962Z,15.63
2019-02-05T14:26:01.452Z,13.37
2019-02-05T14:28:32.088Z,16.83
2019-02-05T14:31:02.644Z,15.60
2019-02-05T14:33:33.224Z,19.00
2019-02-05T14:36:03.755Z,17.73
2019-02-05T14:38:34.217Z,18.27
2019-02-05T14:41:05.154Z,14.87
2019-02-05T14:43:35.689Z,14.37
2019-02-05T14:46:06.726Z,14.67
2019-02-05T14:48:37.186Z,18.07
2019-02-05T14:51:07.739Z,13.37
2019-02-05T14:53:38.199Z,15.93
2019-02-05T14:56:09.037Z,17.20
2019-02-05T14:58:39.482Z,16.93
2019-02-05T15:01:10.074Z,18.13
2019-02-05T15:03:40.606Z,19.10
2019-02-05T15:06:11.852Z,18.70
2019-02-05T15:08:45.128Z,20.93
2019-02-05T15:11:18.819Z,23.27
2019-02-05T15:13:49.293Z,24.60
2019-02-05T15:16:21.686Z,30.53
2019-02-05T15:18:55.055Z,25.53
2019-02-05T15:21:31.732Z,26.33
2019-02-05T15:24:03.067Z,27.80
2019-02-05T15:26:33.552Z,23.40
2019-02-05T15:29:04.114Z,30.07
2019-02-05T15:31:34.672Z,33.53
2019-02-05T15:34:05.505Z,38.57
2019-02-05T15:36:36.060Z,38.67
2019-02-05T15:39:11.495Z,38.43
2019-02-05T15:41:41.956Z,31.53
2019-02-05T15:44:12.527Z,32.60
2019-02-05T15:46:43.058Z,30.97
2019-02-05T15:49:13.541Z,30.30
2019-02-05T15:51:44.074Z,27.30
2019-02-05T15:54:14.646Z,30.20
2019-02-05T15:56:46.745Z,30.47
2019-02-05T15:59:17.328Z,28.00
2019-02-05T16:01:47.870Z,29.97
2019-02-05T16:04:18.364Z,26.70
2019-02-05T16:06:48.829Z,34.43
2019-02-05T16:09:19.398Z,30.50
2019-02-05T16:11:52.714Z,29.10
2019-02-05T16:14:23.172Z,23.90
2019-02-05T16:16:53.655Z,20.50
2019-02-05T16:19:24.160Z,17.93
2019-02-05T16:21:54.732Z,22.20
2019-02-05T16:24:25.190Z,20.93
2019-02-05T16:26:55.683Z,23.90
2019-02-05T16:29:26.156Z,34.10
2019-02-05T16:31:56.662Z,26.63
2019-02-05T16:34:27.130Z,25.60
2019-02-05T16:36:57.619Z,25.80
2019-02-05T16:39:28.450Z,27.40
2019-02-05T16:41:58.946Z,28.40
2019-02-05T16:44:29.447Z,26.10
2019-02-05T16:46:59.902Z,24.47
2019-02-05T16:49:30.394Z,27.00
2019-02-05T16:52:01.038Z,28.73
2019-02-05T16:54:31.603Z,25.00
2019-02-05T16:57:03.577Z,24.83
2019-02-05T16:59:34.371Z,31.30
2019-02-05T17:02:05.373Z,30.53
2019-02-05T17:04:35.874Z,26.40
2019-02-05T17:07:06.735Z,25.20
2019-02-05T17:09:37.237Z,30.20
2019-02-05T17:12:07.837Z,24.60
2019-02-05T17:14:40.804Z,24.00
2019-02-05T17:17:11.315Z,21.37
2019-02-05T17:19:43.400Z,21.50
2019-02-05T17:22:14.579Z,23.60
2019-02-05T17:24:47.671Z,21.90
2019-02-05T17:27:18.816Z,30.97
2019-02-05T17:29:50.184Z,28.03
2019-02-05T17:32:21.090Z,24.60
2019-02-05T17:34:51.581Z,22.73
2019-02-05T17:37:22.050Z,22.60
2019-02-05T17:39:53.116Z,21.93
2019-02-05T17:42:24.234Z,21.63
2019-02-05T17:44:54.753Z,19.23
2019-02-05T17:47:25.236Z,24.00
2019-02-05T17:49:55.741Z,26.17
2019-02-05T17:52:26.240Z,24.47
2019-02-05T17:54:58.232Z,22.83
2019-02-05T17:57:29.395Z,22.73
2019-02-05T17:59:59.858Z,26.43
2019-02-05T18:02:30.354Z,21.13
2019-02-05T18:05:00.820Z,20.77
2019-02-05T18:07:31.303Z,24.33
2019-02-05T18:10:01.778Z,27.23
2019-02-05T18:12:32.741Z,30.60
2019-02-05T18:15:05.887Z,27.30
2019-02-05T18:17:36.348Z,33.57
2019-02-05T18:20:09.742Z,28.43
2019-02-05T18:22:40.212Z,30.47
2019-02-05T18:25:17.683Z,31.90
2019-02-05T18:27:48.348Z,28.67
2019-02-05T18:30:32.386Z,26.97
2019-02-05T18:33:05.531Z,42.10
2019-02-05T18:35:36.645Z,29.17
2019-02-05T18:38:15.085Z,32.77
2019-02-05T18:40:45.653Z,33.53
2019-02-05T18:43:16.683Z,30.70
2019-02-05T18:45:47.136Z,29.97
2019-02-05T18:48:17.693Z,78.57
2019-02-05T18:50:48.234Z,41.97
2019-02-05T18:53:20.937Z,30.70
2019-02-05T18:55:51.430Z,29.20
2019-02-05T18:58:26.538Z,29.60
2019-02-05T19:00:57.383Z,27.07
2019-02-05T19:03:27.892Z,33.53
2019-02-05T19:05:58.354Z,30.87
2019-02-05T19:08:28.875Z,29.83
2019-02-05T19:10:59.384Z,31.20
2019-02-05T19:13:30.365Z,27.27
2019-02-05T19:16:00.856Z,26.90
2019-02-05T19:18:31.392Z,31.80
2019-02-05T19:21:01.896Z,30.13
2019-02-05T19:23:32.359Z,31.20
2019-02-05T19:26:04.488Z,26.37
2019-02-05T19:28:35.048Z,33.07
2019-02-05T19:31:19.308Z,28.90
2019-02-05T19:33:49.762Z,28.60
2019-02-05T19:36:21.832Z,29.97
2019-02-05T19:38:52.311Z,30.33
2019-02-05T19:41:23.764Z,33.63
2019-02-05T19:43:54.261Z,30.70
2019-02-05T19:46:45.085Z,31.50
2019-02-05T19:49:22.705Z,34.13
2019-02-05T19:51:53.173Z,32.33
2019-02-05T19:54:24.027Z,34.53
2019-02-05T19:56:54.597Z,34.60
2019-02-05T19:59:27.740Z,32.80
2019-02-05T20:01:58.303Z,29.43
2019-02-05T20:04:28.842Z,33.50
2019-02-05T20:07:00.315Z,27.53
2019-02-05T20:09:30.804Z,29.47
2019-02-05T20:12:01.549Z,31.93
2019-02-05T20:14:32.006Z,31.70
2019-02-05T20:17:02.667Z,36.13
2019-02-05T20:19:33.270Z,30.80
2019-02-05T20:22:03.767Z,37.07
2019-02-05T20:24:34.308Z,39.77
2019-02-05T20:27:05.273Z,36.87
2019-02-05T20:29:35.804Z,34.23
2019-02-05T20:32:06.885Z,35.60
2019-02-05T20:34:37.367Z,33.70
2019-02-05T20:37:07.936Z,37.60
2019-02-05T20:39:39.961Z,36.60
2019-02-05T20:42:10.435Z,37.20
2019-02-05T20:44:42.501Z,32.97
2019-02-05T20:47:13.010Z,31.37
2019-02-05T20:49:43.521Z,31.40
2019-02-05T20:52:13.996Z,33.50
2019-02-05T20:54:44.501Z,30.53
2019-02-05T20:57:15.000Z,39.87
2019-02-05T20:59:46.150Z,39.40
2019-02-05T21:02:16.829Z,41.33
2019-02-05T21:04:48.696Z,40.30
2019-02-05T21:07:20.919Z,36.60
2019-02-05T21:09:51.431Z,37.03
2019-02-05T21:12:21.891Z,36.80
2019-02-05T21:14:52.531Z,35.23
2019-02-05T21:17:22.995Z,42.77
2019-02-05T21:19:53.523Z,39.43
2019-02-05T21:22:23.988Z,40.23
2019-02-05T21:24:54.485Z,41.87
2019-02-05T21:27:24.961Z,35.70
2019-02-05T21:29:55.730Z,36.57
2019-02-05T21:32:29.032Z,37.63
2019-02-05T21:35:01.812Z,34.80
2019-02-05T21:37:32.502Z,39.50
2019-02-05T21:40:03.150Z,40.73
2019-02-05T21:42:37.278Z,40.97
2019-02-05T21:45:12.615Z,34.00
2019-02-05T21:47:44.670Z,39.80
2019-02-05T21:50:19.594Z,37.30
2019-02-05T21:52:50.413Z,38.17
2019-02-05T21:55:23.600Z,33.90
2019-02-05T21:57:55.731Z,38.97
2019-02-05T22:00:34.562Z,47.20
2019-02-05T22:03:07.041Z,37.97
2019-02-05T22:05:39.387Z,38.17
2019-02-05T22:08:10.721Z,37.40
2019-02-05T22:10:41.325Z,36.13
2019-02-05T22:13:11.843Z,44.93
2019-02-05T22:15:42.312Z,40.43
2019-02-05T22:18:12.973Z,43.67
2019-02-05T22:20:43.445Z,40.00
2019-02-05T22:23:14.336Z,36.97
2019-02-05T22:25:44.868Z,38.57
2019-02-05T22:28:15.345Z,38.70
2019-02-05T22:30:46.221Z,42.60
2019-02-05T22:33:16.694Z,41.63
2019-02-05T22:35:47.194Z,42.80
2019-02-05T22:38:17.663Z,37.50
2019-02-05T22:40:49.756Z,43.17
2019-02-05T22:43:22.048Z,39.63
2019-02-05T22:45:52.526Z,43.67
2019-02-05T22:48:23.022Z,40.43
2019-02-05T22:50:53.498Z,38.60
2019-02-05T22:53:24.578Z,48.37
2019-02-05T22:55:55.035Z,41.60
2019-02-05T22:58:25.714Z,42.27
2019-02-05T23:01:12.979Z,36.33
2019-02-05T23:03:48.020Z,44.50
2019-02-05T23:06:35.759Z,43.40
2019-02-05T23:09:29.052Z,45.87
2019-02-05T23:12:04.248Z,44.50
2019-02-05T23:14:34.749Z,50.53
2019-02-05T23:17:05.763Z,42.30
2019-02-05T23:19:36.339Z,41.97
2019-02-05T23:22:07.146Z,48.73
2019-02-05T23:24:38.550Z,42.80
2019-02-05T23:27:09.023Z,51.97
2019-02-05T23:29:39.597Z,47.83
2019-02-05T23:32:10.138Z,48.40
2019-02-05T23:34:40.710Z,50.13
2019-02-05T23:37:11.194Z,45.63
2019-02-05T23:39:41.767Z,47.90
2019-02-05T23:42:13.047Z,52.30
2019-02-05T23:44:44.450Z,48.97
2019-02-05T23:47:15.420Z,48.60
2019-02-05T23:49:45.918Z,51.30
2019-02-05T23:52:16.456Z,44.03
2019-02-05T23:54:46.967Z,46.97
2019-02-05T23:57:17.467Z,46.43
2019-02-05T23:59:47.966Z,51.33
